Impacts METAR Board
IDs:

KPHL - Philadelphia Intl, PA, US

Updated at: 1600 UTC 03 Dec 2021
Potential Impact None Slight Moderate High
Time 03/04Z 03/05Z 03/06Z 03/07Z 03/08Z 03/09Z 03/10Z 03/11Z 03/12Z 03/13Z 03/14Z 03/15Z 03/16Z
Temp59 55 53 52 51 50 47 43 43 45 47 48 49
Dewpt39 36 32 28 29 28 29 29 29 28 27 26 26
Altim29.69 29.75 29.78 29.81 29.84 29.86 29.87 29.91 29.94 29.97 29.99 30.00 30.01
VIS10 10 10 10 10 10 10 10 10 10 10 10 10
CIG-- -- 70 -- -- -- -- -- -- -- -- -- 280
CoverSCTSCTBKNSCTSCTSCTCLRFEWFEWSCTSCTSCTBKN
FltCatVFRVFRVFRVFRVFRVFRVFRVFRVFRVFRVFRVFRVFR
WX--------------------------
WDir280320310310280260280250260260270290290
WSpd22 14 13 14 11 9 10 7 10 10 9 12 10
WGst31 25 18 -- 19 -- -- -- -- -- -- 19 --
Raw hourly METARs
KPHL 030354Z 28022G31KT 10SM FEW085 SCT100 15/04 A2969 RMK AO2 PK WND 28031/0353 SLP054 T01500039
KPHL 030454Z 32014G25KT 10SM SCT065 13/02 A2975 RMK AO2 PK WND 34033/0434 SLP074 T01280022 401610078
KPHL 030554Z 31013G18KT 10SM BKN070 12/00 A2978 RMK AO2 SLP085 T01170000 10161 20111 53038
KPHL 030654Z 31014KT 10SM SCT075 11/M02 A2981 RMK AO2 SLP094 T01111022
KPHL 030754Z 28011G19KT 10SM FEW150 SCT280 11/M02 A2984 RMK AO2 SLP105 T01061017
KPHL 030854Z 26009KT 10SM FEW150 SCT280 10/M02 A2986 RMK AO2 SLP112 T01001022 51027
KPHL 030954Z 28010KT 10SM CLR 08/M02 A2987 RMK AO2 SLP115 T00831017
KPHL 031054Z 25007KT 10SM FEW280 06/M02 A2991 RMK AO2 SLP126 T00611017
KPHL 031154Z 26010KT 10SM FEW050 FEW280 06/M02 A2994 RMK AO2 SLP138 T00611017 10117 20056 53026
KPHL 031254Z 26010KT 10SM FEW050 SCT280 07/M02 A2997 RMK AO2 SLP148 T00721022
KPHL 031354Z 27009KT 240V300 10SM FEW050 SCT280 08/M03 A2999 RMK AO2 SLP156 T00831028
KPHL 031454Z 29012G19KT 10SM FEW050 SCT180 SCT280 09/M03 A3000 RMK AO2 SLP159 T00891033 51021
KPHL 031554Z 29010KT 10SM FEW050 SCT180 BKN280 09/M03 A3001 RMK AO2 SLP162 T00941033



Page loaded:  16:27 UTC  |   08:27 AM Pacific  |   09:27 AM Mountain  |   10:27 AM Central  |   11:27 AM Eastern

 

ADVISORIES

FORECASTS

FORECASTS

OBSERVATIONS

USER TOOLS

ABOUT US